KLWC

Lawrence Municipal Airport

Lawrence, Kansas, USA
METAR KLWC 181452Z AUTO 15006KT 10SM CLR M06/M12 A3026 RMK AO2 SLP257 T10561122 58009
Observed Flight Rules
Jan-18 @ 14:52 UTC (40 minutes ago) Visual Flight Rules
Wind Visibility Clouds
150° at 6 knots 10 miles
  • Clear skies
Temperatures Readings
Current -6°C / 21°F
Dewpoint -12°C / 10°F
Humidity 63%
Altimeter 30.26" Hg
Pressure 1025.7 hPa
Elevation 253
METAR KLWC 181452Z AUTO 15006KT 10SM CLR M06/M12 A3026 RMK AO2 SLP257 T10561122 58009
Observed Flight Rules
Jan-18 @ 14:52 UTC
(40 minutes ago)
VFR
Wind Visibility
150° at 6 knots 10 miles
Clouds
  • Clear skies
Temperature Dewpoint
-6°C / 21°F -12°C / 10°F
Humidity Altimeter Pressure
63% 30.26" Hg 1025.7 hPa